sensor_id;sensor_type;location;lat;lon;timestamp;P1;durP1;ratioP1;P2;durP2;ratioP2
5785;SDS011;2919;48.630;9.000;2024-03-22T00:02:07;8.83;;;4.27;;
5785;SDS011;2919;48.630;9.000;2024-03-22T00:04:34;9.87;;;5.67;;
5785;SDS011;2919;48.630;9.000;2024-03-22T00:07:02;9.07;;;4.63;;
5785;SDS011;2919;48.630;9.000;2024-03-22T00:09:28;8.77;;;4.50;;
5785;SDS011;2919;48.630;9.000;2024-03-22T00:11:54;14.57;;;4.67;;
5785;SDS011;2919;48.630;9.000;2024-03-22T00:14:19;15.20;;;5.27;;
5785;SDS011;2919;48.630;9.000;2024-03-22T00:16:45;11.97;;;6.00;;
5785;SDS011;2919;48.630;9.000;2024-03-22T00:19:10;16.23;;;6.20;;
5785;SDS011;2919;48.630;9.000;2024-03-22T00:21:36;15.60;;;6.40;;
5785;SDS011;2919;48.630;9.000;2024-03-22T00:24:01;11.87;;;6.67;;
5785;SDS011;2919;48.630;9.000;2024-03-22T00:26:27;10.37;;;6.23;;
5785;SDS011;2919;48.630;9.000;2024-03-22T00:28:53;12.87;;;5.03;;
5785;SDS011;2919;48.630;9.000;2024-03-22T00:31:18;11.00;;;5.43;;
5785;SDS011;2919;48.630;9.000;2024-03-22T00:33:44;13.27;;;5.50;;
5785;SDS011;2919;48.630;9.000;2024-03-22T00:36:09;11.40;;;5.93;;
5785;SDS011;2919;48.630;9.000;2024-03-22T00:38:35;12.40;;;5.80;;
5785;SDS011;2919;48.630;9.000;2024-03-22T00:41:01;12.67;;;5.57;;
5785;SDS011;2919;48.630;9.000;2024-03-22T00:43:27;9.87;;;6.50;;
5785;SDS011;2919;48.630;9.000;2024-03-22T00:45:52;10.57;;;6.03;;
5785;SDS011;2919;48.630;9.000;2024-03-22T00:48:18;13.27;;;5.90;;
5785;SDS011;2919;48.630;9.000;2024-03-22T00:50:43;11.07;;;5.57;;
5785;SDS011;2919;48.630;9.000;2024-03-22T00:53:09;11.73;;;6.50;;
5785;SDS011;2919;48.630;9.000;2024-03-22T00:55:35;12.30;;;6.43;;
5785;SDS011;2919;48.630;9.000;2024-03-22T00:58:01;11.87;;;5.13;;
5785;SDS011;2919;48.630;9.000;2024-03-22T01:00:26;10.13;;;5.70;;
5785;SDS011;2919;48.630;9.000;2024-03-22T01:02:52;9.00;;;5.60;;
5785;SDS011;2919;48.630;9.000;2024-03-22T01:05:17;12.73;;;5.90;;
5785;SDS011;2919;48.630;9.000;2024-03-22T01:07:43;16.53;;;6.50;;
5785;SDS011;2919;48.630;9.000;2024-03-22T01:10:09;17.20;;;6.30;;
5785;SDS011;2919;48.630;9.000;2024-03-22T01:12:35;10.33;;;5.83;;
5785;SDS011;2919;48.630;9.000;2024-03-22T01:15:01;10.93;;;5.33;;
5785;SDS011;2919;48.630;9.000;2024-03-22T01:17:26;13.20;;;5.60;;
5785;SDS011;2919;48.630;9.000;2024-03-22T01:19:52;10.27;;;5.50;;
5785;SDS011;2919;48.630;9.000;2024-03-22T01:22:17;12.07;;;5.53;;
5785;SDS011;2919;48.630;9.000;2024-03-22T01:24:43;9.97;;;5.50;;
5785;SDS011;2919;48.630;9.000;2024-03-22T01:27:09;13.80;;;6.80;;
5785;SDS011;2919;48.630;9.000;2024-03-22T01:29:35;10.47;;;5.63;;
5785;SDS011;2919;48.630;9.000;2024-03-22T01:32:01;12.20;;;5.20;;
5785;SDS011;2919;48.630;9.000;2024-03-22T01:34:27;10.27;;;5.40;;
5785;SDS011;2919;48.630;9.000;2024-03-22T01:36:52;11.60;;;5.23;;
5785;SDS011;2919;48.630;9.000;2024-03-22T01:39:18;14.10;;;4.73;;
5785;SDS011;2919;48.630;9.000;2024-03-22T01:41:46;14.10;;;5.77;;
5785;SDS011;2919;48.630;9.000;2024-03-22T01:44:15;8.03;;;5.10;;
5785;SDS011;2919;48.630;9.000;2024-03-22T01:46:41;9.27;;;4.50;;
5785;SDS011;2919;48.630;9.000;2024-03-22T01:49:08;7.03;;;4.20;;
5785;SDS011;2919;48.630;9.000;2024-03-22T01:51:35;14.57;;;5.67;;
5785;SDS011;2919;48.630;9.000;2024-03-22T01:54:03;15.33;;;5.67;;
5785;SDS011;2919;48.630;9.000;2024-03-22T01:56:32;10.27;;;5.60;;
5785;SDS011;2919;48.630;9.000;2024-03-22T01:58:58;14.17;;;5.43;;
5785;SDS011;2919;48.630;9.000;2024-03-22T02:01:24;14.50;;;4.90;;
5785;SDS011;2919;48.630;9.000;2024-03-22T02:03:51;8.47;;;5.20;;
5785;SDS011;2919;48.630;9.000;2024-03-22T02:06:16;17.13;;;5.47;;
5785;SDS011;2919;48.630;9.000;2024-03-22T02:08:42;7.93;;;4.50;;
5785;SDS011;2919;48.630;9.000;2024-03-22T02:11:09;13.30;;;5.37;;
5785;SDS011;2919;48.630;9.000;2024-03-22T02:13:34;8.90;;;4.70;;
5785;SDS011;2919;48.630;9.000;2024-03-22T02:16:02;11.97;;;4.90;;
5785;SDS011;2919;48.630;9.000;2024-03-22T02:18:28;17.47;;;5.50;;
5785;SDS011;2919;48.630;9.000;2024-03-22T02:20:53;11.77;;;5.77;;
5785;SDS011;2919;48.630;9.000;2024-03-22T02:23:23;10.93;;;5.33;;
5785;SDS011;2919;48.630;9.000;2024-03-22T02:25:57;10.00;;;5.73;;
5785;SDS011;2919;48.630;9.000;2024-03-22T02:28:23;7.03;;;4.57;;
5785;SDS011;2919;48.630;9.000;2024-03-22T02:30:48;17.17;;;6.13;;
5785;SDS011;2919;48.630;9.000;2024-03-22T02:33:14;11.00;;;5.50;;
5785;SDS011;2919;48.630;9.000;2024-03-22T02:35:39;20.53;;;7.10;;
5785;SDS011;2919;48.630;9.000;2024-03-22T02:38:05;9.50;;;5.23;;
5785;SDS011;2919;48.630;9.000;2024-03-22T02:40:30;10.33;;;4.60;;
5785;SDS011;2919;48.630;9.000;2024-03-22T02:42:56;12.97;;;5.93;;
5785;SDS011;2919;48.630;9.000;2024-03-22T02:45:21;9.03;;;5.70;;
5785;SDS011;2919;48.630;9.000;2024-03-22T02:47:47;13.70;;;6.00;;
5785;SDS011;2919;48.630;9.000;2024-03-22T02:50:12;13.70;;;6.30;;
5785;SDS011;2919;48.630;9.000;2024-03-22T02:52:38;11.97;;;6.07;;
5785;SDS011;2919;48.630;9.000;2024-03-22T02:55:03;17.47;;;6.00;;
5785;SDS011;2919;48.630;9.000;2024-03-22T02:57:29;17.93;;;6.37;;
5785;SDS011;2919;48.630;9.000;2024-03-22T02:59:54;16.50;;;5.60;;
5785;SDS011;2919;48.630;9.000;2024-03-22T03:02:20;9.30;;;5.57;;
5785;SDS011;2919;48.630;9.000;2024-03-22T03:04:45;22.03;;;6.20;;
5785;SDS011;2919;48.630;9.000;2024-03-22T03:07:11;12.43;;;6.37;;
5785;SDS011;2919;48.630;9.000;2024-03-22T03:09:36;9.80;;;5.30;;
5785;SDS011;2919;48.630;9.000;2024-03-22T03:12:02;16.53;;;6.13;;
5785;SDS011;2919;48.630;9.000;2024-03-22T03:14:27;10.40;;;5.27;;
5785;SDS011;2919;48.630;9.000;2024-03-22T03:16:53;14.30;;;5.40;;
5785;SDS011;2919;48.630;9.000;2024-03-22T03:19:18;13.37;;;5.77;;
5785;SDS011;2919;48.630;9.000;2024-03-22T03:21:44;13.23;;;6.77;;
5785;SDS011;2919;48.630;9.000;2024-03-22T03:24:09;15.10;;;7.40;;
5785;SDS011;2919;48.630;9.000;2024-03-22T03:26:35;13.10;;;6.47;;
5785;SDS011;2919;48.630;9.000;2024-03-22T03:29:00;12.60;;;7.23;;
5785;SDS011;2919;48.630;9.000;2024-03-22T03:31:26;21.20;;;6.90;;
5785;SDS011;2919;48.630;9.000;2024-03-22T03:33:51;19.93;;;6.83;;
5785;SDS011;2919;48.630;9.000;2024-03-22T03:36:17;9.27;;;6.37;;
5785;SDS011;2919;48.630;9.000;2024-03-22T03:38:42;12.67;;;6.30;;
5785;SDS011;2919;48.630;9.000;2024-03-22T03:41:08;14.47;;;6.87;;
5785;SDS011;2919;48.630;9.000;2024-03-22T03:43:33;11.57;;;6.20;;
5785;SDS011;2919;48.630;9.000;2024-03-22T03:45:59;14.30;;;6.17;;
5785;SDS011;2919;48.630;9.000;2024-03-22T03:48:25;11.70;;;5.87;;
5785;SDS011;2919;48.630;9.000;2024-03-22T03:50:51;13.57;;;7.70;;
5785;SDS011;2919;48.630;9.000;2024-03-22T03:53:17;11.43;;;6.43;;
5785;SDS011;2919;48.630;9.000;2024-03-22T03:55:43;13.60;;;6.77;;
5785;SDS011;2919;48.630;9.000;2024-03-22T03:58:08;12.43;;;6.43;;
5785;SDS011;2919;48.630;9.000;2024-03-22T04:00:34;12.80;;;5.90;;
5785;SDS011;2919;48.630;9.000;2024-03-22T04:03:00;13.13;;;6.90;;
5785;SDS011;2919;48.630;9.000;2024-03-22T04:05:25;11.40;;;5.17;;
5785;SDS011;2919;48.630;9.000;2024-03-22T04:07:51;8.87;;;5.33;;
5785;SDS011;2919;48.630;9.000;2024-03-22T04:10:16;15.50;;;5.33;;
5785;SDS011;2919;48.630;9.000;2024-03-22T04:12:42;11.27;;;5.80;;
5785;SDS011;2919;48.630;9.000;2024-03-22T04:15:09;12.00;;;7.17;;
5785;SDS011;2919;48.630;9.000;2024-03-22T04:17:35;9.30;;;5.93;;
5785;SDS011;2919;48.630;9.000;2024-03-22T04:20:00;14.63;;;6.70;;
5785;SDS011;2919;48.630;9.000;2024-03-22T04:22:27;11.80;;;6.43;;
5785;SDS011;2919;48.630;9.000;2024-03-22T04:24:52;14.60;;;6.60;;
5785;SDS011;2919;48.630;9.000;2024-03-22T04:27:18;14.23;;;6.30;;
5785;SDS011;2919;48.630;9.000;2024-03-22T04:29:46;10.37;;;6.37;;
5785;SDS011;2919;48.630;9.000;2024-03-22T04:32:12;11.17;;;5.70;;
5785;SDS011;2919;48.630;9.000;2024-03-22T04:34:41;13.50;;;6.33;;
5785;SDS011;2919;48.630;9.000;2024-03-22T04:37:07;8.90;;;5.37;;
5785;SDS011;2919;48.630;9.000;2024-03-22T04:39:33;23.73;;;6.30;;
5785;SDS011;2919;48.630;9.000;2024-03-22T04:41:58;12.13;;;6.23;;
5785;SDS011;2919;48.630;9.000;2024-03-22T04:44:23;16.40;;;6.20;;
5785;SDS011;2919;48.630;9.000;2024-03-22T04:46:50;8.80;;;5.83;;
5785;SDS011;2919;48.630;9.000;2024-03-22T04:49:15;14.60;;;6.10;;
5785;SDS011;2919;48.630;9.000;2024-03-22T04:51:41;11.83;;;5.50;;
5785;SDS011;2919;48.630;9.000;2024-03-22T04:54:06;16.07;;;6.17;;
5785;SDS011;2919;48.630;9.000;2024-03-22T04:56:32;8.07;;;5.17;;
5785;SDS011;2919;48.630;9.000;2024-03-22T04:58:57;7.50;;;4.73;;
5785;SDS011;2919;48.630;9.000;2024-03-22T05:01:23;15.40;;;6.13;;
5785;SDS011;2919;48.630;9.000;2024-03-22T05:03:49;11.90;;;5.60;;
5785;SDS011;2919;48.630;9.000;2024-03-22T05:06:14;11.33;;;6.30;;
5785;SDS011;2919;48.630;9.000;2024-03-22T05:08:40;13.00;;;5.90;;
5785;SDS011;2919;48.630;9.000;2024-03-22T05:11:06;14.67;;;5.17;;
5785;SDS011;2919;48.630;9.000;2024-03-22T05:13:32;11.97;;;6.10;;
5785;SDS011;2919;48.630;9.000;2024-03-22T05:15:58;12.20;;;5.97;;
5785;SDS011;2919;48.630;9.000;2024-03-22T05:18:24;13.17;;;5.80;;
5785;SDS011;2919;48.630;9.000;2024-03-22T05:20:49;11.33;;;6.13;;
5785;SDS011;2919;48.630;9.000;2024-03-22T05:23:15;14.03;;;6.30;;
5785;SDS011;2919;48.630;9.000;2024-03-22T05:25:43;15.07;;;6.00;;
5785;SDS011;2919;48.630;9.000;2024-03-22T05:28:09;18.37;;;6.07;;
5785;SDS011;2919;48.630;9.000;2024-03-22T05:30:34;12.00;;;5.77;;
5785;SDS011;2919;48.630;9.000;2024-03-22T05:33:00;16.77;;;6.70;;
5785;SDS011;2919;48.630;9.000;2024-03-22T05:35:26;15.90;;;6.47;;
5785;SDS011;2919;48.630;9.000;2024-03-22T05:37:52;15.27;;;6.83;;
5785;SDS011;2919;48.630;9.000;2024-03-22T05:40:17;12.87;;;5.30;;
5785;SDS011;2919;48.630;9.000;2024-03-22T05:42:43;8.40;;;5.67;;
5785;SDS011;2919;48.630;9.000;2024-03-22T05:45:08;9.57;;;6.50;;
5785;SDS011;2919;48.630;9.000;2024-03-22T05:47:34;17.03;;;7.33;;
5785;SDS011;2919;48.630;9.000;2024-03-22T05:50:00;9.53;;;5.60;;
5785;SDS011;2919;48.630;9.000;2024-03-22T05:52:26;10.70;;;5.63;;
5785;SDS011;2919;48.630;9.000;2024-03-22T05:54:52;15.83;;;6.57;;
5785;SDS011;2919;48.630;9.000;2024-03-22T05:57:17;14.10;;;7.60;;
5785;SDS011;2919;48.630;9.000;2024-03-22T05:59:43;15.80;;;6.90;;
5785;SDS011;2919;48.630;9.000;2024-03-22T06:02:09;11.10;;;5.83;;
5785;SDS011;2919;48.630;9.000;2024-03-22T06:04:34;16.17;;;6.87;;
5785;SDS011;2919;48.630;9.000;2024-03-22T06:07:01;14.87;;;6.50;;
5785;SDS011;2919;48.630;9.000;2024-03-22T06:09:29;18.73;;;7.60;;
5785;SDS011;2919;48.630;9.000;2024-03-22T06:12:10;10.10;;;6.13;;
5785;SDS011;2919;48.630;9.000;2024-03-22T06:14:36;13.97;;;6.37;;
5785;SDS011;2919;48.630;9.000;2024-03-22T06:17:03;13.10;;;6.27;;
5785;SDS011;2919;48.630;9.000;2024-03-22T06:19:29;13.87;;;6.30;;
5785;SDS011;2919;48.630;9.000;2024-03-22T06:21:54;14.97;;;6.70;;
5785;SDS011;2919;48.630;9.000;2024-03-22T06:24:20;13.90;;;6.40;;
5785;SDS011;2919;48.630;9.000;2024-03-22T06:26:45;12.00;;;6.00;;
5785;SDS011;2919;48.630;9.000;2024-03-22T06:29:11;13.90;;;6.60;;
5785;SDS011;2919;48.630;9.000;2024-03-22T06:31:37;18.03;;;6.93;;
5785;SDS011;2919;48.630;9.000;2024-03-22T06:34:03;30.80;;;6.40;;
5785;SDS011;2919;48.630;9.000;2024-03-22T06:36:29;13.13;;;6.53;;
5785;SDS011;2919;48.630;9.000;2024-03-22T06:38:56;12.43;;;6.50;;
5785;SDS011;2919;48.630;9.000;2024-03-22T06:41:22;19.10;;;6.27;;
5785;SDS011;2919;48.630;9.000;2024-03-22T06:43:47;15.63;;;7.47;;
5785;SDS011;2919;48.630;9.000;2024-03-22T06:46:13;12.73;;;6.37;;
5785;SDS011;2919;48.630;9.000;2024-03-22T06:48:38;22.10;;;7.20;;
5785;SDS011;2919;48.630;9.000;2024-03-22T06:51:04;14.33;;;6.87;;
5785;SDS011;2919;48.630;9.000;2024-03-22T06:53:29;11.60;;;6.57;;
5785;SDS011;2919;48.630;9.000;2024-03-22T06:55:55;14.77;;;6.20;;
5785;SDS011;2919;48.630;9.000;2024-03-22T06:58:20;14.33;;;7.60;;
5785;SDS011;2919;48.630;9.000;2024-03-22T07:00:46;25.17;;;8.57;;
5785;SDS011;2919;48.630;9.000;2024-03-22T07:03:11;17.73;;;7.60;;
5785;SDS011;2919;48.630;9.000;2024-03-22T07:05:37;13.70;;;7.37;;
5785;SDS011;2919;48.630;9.000;2024-03-22T07:08:02;16.77;;;8.20;;
5785;SDS011;2919;48.630;9.000;2024-03-22T07:10:28;18.40;;;7.50;;
5785;SDS011;2919;48.630;9.000;2024-03-22T07:12:54;18.53;;;7.03;;
5785;SDS011;2919;48.630;9.000;2024-03-22T07:15:20;13.73;;;6.93;;
5785;SDS011;2919;48.630;9.000;2024-03-22T07:17:49;11.50;;;6.10;;
5785;SDS011;2919;48.630;9.000;2024-03-22T07:20:16;11.53;;;5.70;;
5785;SDS011;2919;48.630;9.000;2024-03-22T07:22:41;12.70;;;6.73;;
5785;SDS011;2919;48.630;9.000;2024-03-22T07:25:07;12.13;;;5.40;;
5785;SDS011;2919;48.630;9.000;2024-03-22T07:27:34;12.23;;;5.10;;
5785;SDS011;2919;48.630;9.000;2024-03-22T07:30:00;10.33;;;4.73;;
5785;SDS011;2919;48.630;9.000;2024-03-22T07:32:26;9.33;;;3.80;;
5785;SDS011;2919;48.630;9.000;2024-03-22T07:34:51;11.00;;;5.10;;
5785;SDS011;2919;48.630;9.000;2024-03-22T07:37:17;13.90;;;4.77;;
5785;SDS011;2919;48.630;9.000;2024-03-22T07:39:42;12.77;;;5.87;;
5785;SDS011;2919;48.630;9.000;2024-03-22T07:42:08;8.40;;;4.03;;
5785;SDS011;2919;48.630;9.000;2024-03-22T07:44:33;15.47;;;5.13;;
5785;SDS011;2919;48.630;9.000;2024-03-22T07:46:59;13.20;;;4.43;;
5785;SDS011;2919;48.630;9.000;2024-03-22T07:49:24;5.73;;;3.50;;
5785;SDS011;2919;48.630;9.000;2024-03-22T07:51:50;9.53;;;4.67;;
5785;SDS011;2919;48.630;9.000;2024-03-22T07:54:15;14.87;;;4.87;;
5785;SDS011;2919;48.630;9.000;2024-03-22T07:56:42;8.50;;;4.73;;
5785;SDS011;2919;48.630;9.000;2024-03-22T07:59:07;10.80;;;4.37;;
5785;SDS011;2919;48.630;9.000;2024-03-22T08:01:33;6.37;;;4.40;;
5785;SDS011;2919;48.630;9.000;2024-03-22T08:03:58;8.17;;;4.23;;
5785;SDS011;2919;48.630;9.000;2024-03-22T08:06:24;8.93;;;3.97;;
5785;SDS011;2919;48.630;9.000;2024-03-22T08:08:49;10.73;;;3.80;;
5785;SDS011;2919;48.630;9.000;2024-03-22T08:11:15;8.30;;;3.70;;
5785;SDS011;2919;48.630;9.000;2024-03-22T08:13:40;12.10;;;4.10;;
5785;SDS011;2919;48.630;9.000;2024-03-22T08:16:06;8.87;;;4.10;;
5785;SDS011;2919;48.630;9.000;2024-03-22T08:18:32;7.13;;;4.33;;
5785;SDS011;2919;48.630;9.000;2024-03-22T08:20:57;6.77;;;3.90;;
5785;SDS011;2919;48.630;9.000;2024-03-22T08:23:24;8.47;;;3.77;;
5785;SDS011;2919;48.630;9.000;2024-03-22T08:25:49;11.07;;;3.73;;
5785;SDS011;2919;48.630;9.000;2024-03-22T08:28:15;10.03;;;4.20;;
5785;SDS011;2919;48.630;9.000;2024-03-22T08:30:43;6.93;;;3.40;;
5785;SDS011;2919;48.630;9.000;2024-03-22T08:33:09;6.63;;;3.13;;
5785;SDS011;2919;48.630;9.000;2024-03-22T08:35:36;12.53;;;3.43;;
5785;SDS011;2919;48.630;9.000;2024-03-22T08:38:01;5.80;;;3.23;;
5785;SDS011;2919;48.630;9.000;2024-03-22T08:40:28;8.47;;;4.27;;
5785;SDS011;2919;48.630;9.000;2024-03-22T08:42:53;9.20;;;3.30;;
5785;SDS011;2919;48.630;9.000;2024-03-22T08:45:19;9.30;;;4.33;;
5785;SDS011;2919;48.630;9.000;2024-03-22T08:47:45;6.83;;;3.07;;
5785;SDS011;2919;48.630;9.000;2024-03-22T08:50:13;13.77;;;3.40;;
5785;SDS011;2919;48.630;9.000;2024-03-22T08:52:39;6.23;;;3.23;;
5785;SDS011;2919;48.630;9.000;2024-03-22T08:55:05;8.30;;;3.70;;
5785;SDS011;2919;48.630;9.000;2024-03-22T08:57:32;22.30;;;4.43;;
5785;SDS011;2919;48.630;9.000;2024-03-22T08:59:58;5.67;;;2.70;;
5785;SDS011;2919;48.630;9.000;2024-03-22T09:02:23;7.70;;;3.13;;
5785;SDS011;2919;48.630;9.000;2024-03-22T09:04:49;9.50;;;4.27;;
5785;SDS011;2919;48.630;9.000;2024-03-22T09:07:14;7.43;;;3.30;;
5785;SDS011;2919;48.630;9.000;2024-03-22T09:09:40;6.20;;;2.70;;
5785;SDS011;2919;48.630;9.000;2024-03-22T09:12:06;7.73;;;3.50;;
5785;SDS011;2919;48.630;9.000;2024-03-22T09:14:32;13.53;;;4.00;;
5785;SDS011;2919;48.630;9.000;2024-03-22T09:16:58;12.33;;;3.57;;
5785;SDS011;2919;48.630;9.000;2024-03-22T09:19:23;26.57;;;4.33;;
5785;SDS011;2919;48.630;9.000;2024-03-22T09:21:49;8.30;;;3.90;;
5785;SDS011;2919;48.630;9.000;2024-03-22T09:24:14;6.37;;;3.80;;
5785;SDS011;2919;48.630;9.000;2024-03-22T09:26:40;10.97;;;3.77;;
5785;SDS011;2919;48.630;9.000;2024-03-22T09:29:05;11.07;;;4.57;;
5785;SDS011;2919;48.630;9.000;2024-03-22T09:31:31;8.17;;;3.07;;
5785;SDS011;2919;48.630;9.000;2024-03-22T09:33:58;9.00;;;3.73;;
5785;SDS011;2919;48.630;9.000;2024-03-22T09:36:23;12.50;;;4.10;;
5785;SDS011;2919;48.630;9.000;2024-03-22T09:38:49;7.27;;;3.33;;
5785;SDS011;2919;48.630;9.000;2024-03-22T09:41:15;6.23;;;3.50;;
5785;SDS011;2919;48.630;9.000;2024-03-22T09:43:42;10.07;;;3.77;;
5785;SDS011;2919;48.630;9.000;2024-03-22T09:46:11;6.00;;;2.83;;
5785;SDS011;2919;48.630;9.000;2024-03-22T09:48:39;6.77;;;2.80;;
5785;SDS011;2919;48.630;9.000;2024-03-22T09:51:06;8.83;;;3.37;;
5785;SDS011;2919;48.630;9.000;2024-03-22T09:53:32;6.87;;;3.57;;
5785;SDS011;2919;48.630;9.000;2024-03-22T09:55:58;11.20;;;3.43;;
5785;SDS011;2919;48.630;9.000;2024-03-22T09:58:26;4.70;;;3.10;;
5785;SDS011;2919;48.630;9.000;2024-03-22T10:00:52;7.70;;;3.13;;
5785;SDS011;2919;48.630;9.000;2024-03-22T10:03:18;16.63;;;3.37;;
5785;SDS011;2919;48.630;9.000;2024-03-22T10:05:43;6.37;;;2.93;;
5785;SDS011;2919;48.630;9.000;2024-03-22T10:08:09;10.27;;;3.90;;
5785;SDS011;2919;48.630;9.000;2024-03-22T10:10:34;11.73;;;3.80;;
5785;SDS011;2919;48.630;9.000;2024-03-22T10:13:00;4.50;;;3.00;;
5785;SDS011;2919;48.630;9.000;2024-03-22T10:15:27;6.57;;;3.50;;
5785;SDS011;2919;48.630;9.000;2024-03-22T10:17:56;5.27;;;2.73;;
5785;SDS011;2919;48.630;9.000;2024-03-22T10:20:22;10.77;;;3.63;;
5785;SDS011;2919;48.630;9.000;2024-03-22T10:22:48;5.07;;;2.50;;
5785;SDS011;2919;48.630;9.000;2024-03-22T10:25:19;4.60;;;2.60;;
5785;SDS011;2919;48.630;9.000;2024-03-22T10:27:45;12.00;;;3.80;;
5785;SDS011;2919;48.630;9.000;2024-03-22T10:30:11;9.30;;;3.87;;
5785;SDS011;2919;48.630;9.000;2024-03-22T10:32:40;7.47;;;2.60;;
5785;SDS011;2919;48.630;9.000;2024-03-22T10:35:06;4.70;;;2.50;;
5785;SDS011;2919;48.630;9.000;2024-03-22T10:37:33;7.57;;;3.20;;
5785;SDS011;2919;48.630;9.000;2024-03-22T10:40:01;5.37;;;2.80;;
5785;SDS011;2919;48.630;9.000;2024-03-22T10:42:32;7.60;;;4.10;;
5785;SDS011;2919;48.630;9.000;2024-03-22T10:44:59;6.57;;;3.87;;
5785;SDS011;2919;48.630;9.000;2024-03-22T10:47:25;15.47;;;4.33;;
5785;SDS011;2919;48.630;9.000;2024-03-22T10:49:55;8.13;;;3.60;;
5785;SDS011;2919;48.630;9.000;2024-03-22T10:52:56;18.03;;;3.23;;
5785;SDS011;2919;48.630;9.000;2024-03-22T10:55:34;10.27;;;4.60;;
5785;SDS011;2919;48.630;9.000;2024-03-22T10:58:02;6.23;;;3.37;;
5785;SDS011;2919;48.630;9.000;2024-03-22T11:00:28;5.77;;;3.27;;
5785;SDS011;2919;48.630;9.000;2024-03-22T11:02:55;8.03;;;3.63;;
5785;SDS011;2919;48.630;9.000;2024-03-22T11:05:21;9.00;;;4.00;;
5785;SDS011;2919;48.630;9.000;2024-03-22T11:07:47;7.50;;;3.80;;
5785;SDS011;2919;48.630;9.000;2024-03-22T11:10:13;5.90;;;3.00;;
5785;SDS011;2919;48.630;9.000;2024-03-22T11:12:39;6.27;;;3.30;;
5785;SDS011;2919;48.630;9.000;2024-03-22T11:15:05;6.90;;;4.07;;
5785;SDS011;2919;48.630;9.000;2024-03-22T11:17:31;7.23;;;3.30;;
5785;SDS011;2919;48.630;9.000;2024-03-22T11:19:57;5.30;;;3.27;;
5785;SDS011;2919;48.630;9.000;2024-03-22T11:22:22;6.10;;;3.30;;
5785;SDS011;2919;48.630;9.000;2024-03-22T11:24:50;6.47;;;3.20;;
5785;SDS011;2919;48.630;9.000;2024-03-22T11:27:15;4.83;;;2.63;;
5785;SDS011;2919;48.630;9.000;2024-03-22T11:29:41;8.60;;;3.73;;
5785;SDS011;2919;48.630;9.000;2024-03-22T11:32:10;10.00;;;3.40;;
5785;SDS011;2919;48.630;9.000;2024-03-22T11:34:37;9.83;;;3.80;;
5785;SDS011;2919;48.630;9.000;2024-03-22T11:37:05;14.70;;;4.03;;
5785;SDS011;2919;48.630;9.000;2024-03-22T11:39:32;7.73;;;4.20;;
5785;SDS011;2919;48.630;9.000;2024-03-22T11:41:59;5.17;;;2.80;;
5785;SDS011;2919;48.630;9.000;2024-03-22T11:44:26;6.43;;;3.47;;
5785;SDS011;2919;48.630;9.000;2024-03-22T11:46:52;8.67;;;3.23;;
5785;SDS011;2919;48.630;9.000;2024-03-22T11:49:18;7.00;;;3.30;;
5785;SDS011;2919;48.630;9.000;2024-03-22T11:51:45;6.40;;;3.60;;
5785;SDS011;2919;48.630;9.000;2024-03-22T11:54:11;5.17;;;3.40;;
5785;SDS011;2919;48.630;9.000;2024-03-22T11:56:36;6.23;;;3.60;;
5785;SDS011;2919;48.630;9.000;2024-03-22T11:59:02;9.23;;;3.93;;
5785;SDS011;2919;48.630;9.000;2024-03-22T12:01:28;7.23;;;2.60;;
5785;SDS011;2919;48.630;9.000;2024-03-22T12:03:55;4.30;;;2.50;;
5785;SDS011;2919;48.630;9.000;2024-03-22T12:06:21;4.70;;;3.00;;
5785;SDS011;2919;48.630;9.000;2024-03-22T12:08:46;7.23;;;3.07;;
5785;SDS011;2919;48.630;9.000;2024-03-22T12:11:12;8.00;;;3.03;;
5785;SDS011;2919;48.630;9.000;2024-03-22T12:13:39;4.27;;;2.40;;
5785;SDS011;2919;48.630;9.000;2024-03-22T12:16:04;5.57;;;2.97;;
5785;SDS011;2919;48.630;9.000;2024-03-22T12:18:30;8.50;;;3.53;;
5785;SDS011;2919;48.630;9.000;2024-03-22T12:20:56;7.13;;;2.70;;
5785;SDS011;2919;48.630;9.000;2024-03-22T12:23:22;8.13;;;3.50;;
5785;SDS011;2919;48.630;9.000;2024-03-22T12:25:49;5.93;;;2.77;;
5785;SDS011;2919;48.630;9.000;2024-03-22T12:28:16;6.83;;;3.00;;
5785;SDS011;2919;48.630;9.000;2024-03-22T12:30:41;5.27;;;2.00;;
5785;SDS011;2919;48.630;9.000;2024-03-22T12:33:08;7.57;;;3.23;;
5785;SDS011;2919;48.630;9.000;2024-03-22T12:35:35;8.00;;;2.67;;
5785;SDS011;2919;48.630;9.000;2024-03-22T12:38:01;12.93;;;2.40;;
5785;SDS011;2919;48.630;9.000;2024-03-22T12:40:27;7.33;;;2.50;;
5785;SDS011;2919;48.630;9.000;2024-03-22T12:42:54;7.43;;;2.70;;
5785;SDS011;2919;48.630;9.000;2024-03-22T12:45:20;5.37;;;2.70;;
5785;SDS011;2919;48.630;9.000;2024-03-22T12:47:45;8.43;;;3.10;;
5785;SDS011;2919;48.630;9.000;2024-03-22T12:50:11;6.90;;;2.70;;
5785;SDS011;2919;48.630;9.000;2024-03-22T12:52:38;6.03;;;2.27;;
5785;SDS011;2919;48.630;9.000;2024-03-22T12:55:04;7.40;;;2.70;;
5785;SDS011;2919;48.630;9.000;2024-03-22T12:57:31;6.50;;;2.53;;
5785;SDS011;2919;48.630;9.000;2024-03-22T12:59:57;10.07;;;2.60;;
5785;SDS011;2919;48.630;9.000;2024-03-22T13:02:23;6.17;;;2.67;;
5785;SDS011;2919;48.630;9.000;2024-03-22T13:04:51;13.27;;;1.87;;
5785;SDS011;2919;48.630;9.000;2024-03-22T13:07:16;3.30;;;1.57;;
5785;SDS011;2919;48.630;9.000;2024-03-22T13:09:42;3.17;;;2.10;;
5785;SDS011;2919;48.630;9.000;2024-03-22T13:12:07;4.67;;;1.63;;
5785;SDS011;2919;48.630;9.000;2024-03-22T13:14:33;4.90;;;1.97;;
5785;SDS011;2919;48.630;9.000;2024-03-22T13:16:59;4.60;;;1.83;;
5785;SDS011;2919;48.630;9.000;2024-03-22T13:19:24;2.77;;;1.47;;
5785;SDS011;2919;48.630;9.000;2024-03-22T13:21:50;2.90;;;1.73;;
5785;SDS011;2919;48.630;9.000;2024-03-22T13:24:15;3.63;;;2.00;;
5785;SDS011;2919;48.630;9.000;2024-03-22T13:26:41;2.50;;;1.40;;
5785;SDS011;2919;48.630;9.000;2024-03-22T13:29:07;4.27;;;1.87;;
5785;SDS011;2919;48.630;9.000;2024-03-22T13:31:32;4.70;;;1.80;;
5785;SDS011;2919;48.630;9.000;2024-03-22T13:33:58;4.67;;;1.90;;
5785;SDS011;2919;48.630;9.000;2024-03-22T13:36:23;2.17;;;0.90;;
5785;SDS011;2919;48.630;9.000;2024-03-22T13:38:50;2.57;;;1.50;;
5785;SDS011;2919;48.630;9.000;2024-03-22T13:41:16;2.07;;;1.30;;
5785;SDS011;2919;48.630;9.000;2024-03-22T13:43:42;2.60;;;1.50;;
5785;SDS011;2919;48.630;9.000;2024-03-22T13:46:09;3.60;;;1.20;;
5785;SDS011;2919;48.630;9.000;2024-03-22T13:48:37;4.37;;;1.33;;
5785;SDS011;2919;48.630;9.000;2024-03-22T13:51:02;7.50;;;2.00;;
5785;SDS011;2919;48.630;9.000;2024-03-22T13:53:28;12.97;;;1.50;;
5785;SDS011;2919;48.630;9.000;2024-03-22T13:55:54;3.50;;;1.30;;
5785;SDS011;2919;48.630;9.000;2024-03-22T13:58:19;1.97;;;0.97;;
5785;SDS011;2919;48.630;9.000;2024-03-22T14:00:45;3.47;;;1.27;;
5785;SDS011;2919;48.630;9.000;2024-03-22T14:03:10;3.97;;;1.50;;
5785;SDS011;2919;48.630;9.000;2024-03-22T14:05:36;1.70;;;0.90;;
5785;SDS011;2919;48.630;9.000;2024-03-22T14:08:01;1.93;;;0.90;;
5785;SDS011;2919;48.630;9.000;2024-03-22T14:10:28;1.90;;;1.00;;
5785;SDS011;2919;48.630;9.000;2024-03-22T14:12:57;3.27;;;1.20;;
5785;SDS011;2919;48.630;9.000;2024-03-22T14:15:23;2.53;;;1.17;;
5785;SDS011;2919;48.630;9.000;2024-03-22T14:17:56;1.70;;;0.80;;
5785;SDS011;2919;48.630;9.000;2024-03-22T14:20:22;2.60;;;0.97;;
5785;SDS011;2919;48.630;9.000;2024-03-22T14:22:48;3.10;;;0.90;;
5785;SDS011;2919;48.630;9.000;2024-03-22T14:25:13;2.23;;;1.03;;
5785;SDS011;2919;48.630;9.000;2024-03-22T14:27:39;3.83;;;1.10;;
5785;SDS011;2919;48.630;9.000;2024-03-22T14:30:07;2.00;;;0.80;;
5785;SDS011;2919;48.630;9.000;2024-03-22T14:32:34;7.43;;;1.10;;
5785;SDS011;2919;48.630;9.000;2024-03-22T14:35:00;4.40;;;0.90;;
5785;SDS011;2919;48.630;9.000;2024-03-22T14:37:26;1.23;;;0.57;;
5785;SDS011;2919;48.630;9.000;2024-03-22T14:39:52;3.30;;;1.20;;
5785;SDS011;2919;48.630;9.000;2024-03-22T14:42:17;2.00;;;0.87;;
5785;SDS011;2919;48.630;9.000;2024-03-22T14:44:43;2.57;;;1.00;;
5785;SDS011;2919;48.630;9.000;2024-03-22T14:47:09;11.70;;;1.37;;
5785;SDS011;2919;48.630;9.000;2024-03-22T14:49:35;1.40;;;0.60;;
5785;SDS011;2919;48.630;9.000;2024-03-22T14:52:01;2.07;;;0.70;;
5785;SDS011;2919;48.630;9.000;2024-03-22T14:54:26;1.87;;;0.80;;
5785;SDS011;2919;48.630;9.000;2024-03-22T14:56:52;2.80;;;1.07;;
5785;SDS011;2919;48.630;9.000;2024-03-22T14:59:18;1.50;;;0.80;;
5785;SDS011;2919;48.630;9.000;2024-03-22T15:01:47;2.73;;;1.03;;